Time;durP1;ratioP1;P1;durP2;ratioP2;P2;SDS_P1;SDS_P2;PMS_P1;PMS_P2;Temp;Humidity;BMP_temperature;BMP_pressure;BME280_temperature;BME280_humidity;BME280_pressure;Samples;Min_cycle;Max_cycle;Signal;HPM_P1;HPM_P2
2023/01/16 00:01:42;;;;;;;14.93;7.57;;;;;;;9.33;100.00;97933.72;5120935;28;20377;-94
2023/01/16 00:04:11;;;;;;;15.45;7.25;;;;;;;9.20;100.00;97916.50;5121366;28;20093;-93
2023/01/16 00:06:38;;;;;;;16.08;7.30;;;;;;;9.20;100.00;97906.75;5121330;28;20048;-95
2023/01/16 00:09:06;;;;;;;13.60;7.28;;;;;;;9.29;100.00;97921.50;5121647;28;20044;-95
2023/01/16 00:11:33;;;;;;;14.38;8.07;;;;;;;9.20;100.00;97901.47;5121881;28;20047;-96
2023/01/16 00:14:00;;;;;;;12.65;7.28;;;;;;;9.23;100.00;97903.97;5120565;28;20130;-95
2023/01/16 00:16:26;;;;;;;16.60;8.13;;;;;;;9.36;100.00;97924.78;5121221;28;20431;-95
2023/01/16 00:18:57;;;;;;;15.07;7.20;;;;;;;9.31;100.00;97905.53;5121401;28;20044;-96
2023/01/16 00:21:25;;;;;;;12.38;6.47;;;;;;;9.28;100.00;97882.59;5101451;28;20112;-94
2023/01/16 00:23:58;;;;;;;10.60;6.10;;;;;;;9.37;100.00;97897.34;5101711;28;20165;-94
2023/01/16 00:26:28;;;;;;;10.23;6.45;;;;;;;9.42;100.00;97893.59;5101564;28;20044;-94
2023/01/16 00:28:55;;;;;;;12.60;6.22;;;;;;;9.25;100.00;97859.69;5100213;28;20135;-96
2023/01/16 00:31:36;;;;;;;13.95;6.30;;;;;;;9.25;100.00;97856.19;5099771;28;20068;-96
2023/01/16 00:34:02;;;;;;;12.35;6.03;;;;;;;9.26;100.00;97852.63;5101320;28;20045;-94
2023/01/16 00:36:28;;;;;;;10.25;6.15;;;;;;;9.35;100.00;97859.38;5099724;28;20044;-94
2023/01/16 00:38:56;;;;;;;14.20;6.70;;;;;;;9.29;100.00;97839.25;5100843;28;20040;-95
2023/01/16 00:41:22;;;;;;;14.95;5.75;;;;;;;9.44;100.00;97869.66;5100648;28;20040;-94
2023/01/16 00:43:48;;;;;;;12.85;6.82;;;;;;;9.30;100.00;97851.56;5100248;28;20107;-95
2023/01/16 00:46:14;;;;;;;11.73;6.28;;;;;;;9.29;100.00;97839.25;5098552;28;20080;-94
2023/01/16 00:48:43;;;;;;;13.68;6.57;;;;;;;9.31;100.00;97847.16;5098847;28;20048;-94
2023/01/16 00:51:09;;;;;;;13.30;6.80;;;;;;;9.19;100.00;97836.03;5101576;28;20060;-95
2023/01/16 00:53:35;;;;;;;14.70;7.00;;;;;;;9.16;100.00;97836.16;5098812;28;20055;-94
2023/01/16 00:56:01;;;;;;;16.42;6.78;;;;;;;9.20;100.00;97836.94;5094653;28;20044;-95
2023/01/16 00:58:27;;;;;;;14.60;6.53;;;;;;;9.33;100.00;97864.75;5085894;28;20044;-95
2023/01/16 01:00:54;;;;;;;13.13;6.78;;;;;;;9.15;100.00;97829.16;5085562;28;20076;-96
2023/01/16 01:03:19;;;;;;;11.30;6.72;;;;;;;9.15;100.00;97804.38;5084845;28;20113;-94
2023/01/16 01:06:16;;;;;;;16.20;6.82;;;;;;;9.11;100.00;97801.00;5085595;28;20045;-95
2023/01/16 01:08:42;;;;;;;14.73;7.38;;;;;;;9.11;100.00;97805.41;5086355;28;20056;-95
2023/01/16 01:11:09;;;;;;;13.10;6.57;;;;;;;9.33;100.00;97819.63;5084232;28;20493;-94
2023/01/16 01:13:38;;;;;;;10.52;6.82;;;;;;;9.11;100.00;97784.19;5086895;28;20051;-94
2023/01/16 01:16:06;;;;;;;12.88;7.05;;;;;;;9.08;100.00;97787.84;5087367;28;20398;-95
2023/01/16 01:18:32;;;;;;;12.60;6.97;;;;;;;9.06;100.00;97797.63;5083241;28;20044;-92
2023/01/16 01:21:00;;;;;;;13.68;6.88;;;;;;;9.17;100.00;97816.69;5085361;28;20060;-94
2023/01/16 01:23:26;;;;;;;15.70;7.10;;;;;;;8.99;100.00;97783.75;5090782;28;20071;-96
2023/01/16 01:25:56;;;;;;;13.65;7.45;;;;;;;8.91;100.00;97780.50;5086101;28;20108;-94
2023/01/16 01:28:22;;;;;;;11.68;7.18;;;;;;;8.98;100.00;97775.84;5086572;28;20051;-94
2023/01/16 01:30:54;;;;;;;13.32;7.55;;;;;;;9.02;100.00;97790.72;5087675;28;20131;-95
2023/01/16 01:33:20;;;;;;;13.63;7.07;;;;;;;8.98;100.00;97770.56;5084450;28;20085;-94
2023/01/16 01:35:46;;;;;;;13.02;7.40;;;;;;;8.97;100.00;97777.63;5084879;28;20060;-95
2023/01/16 01:38:13;;;;;;;16.17;7.50;;;;;;;8.99;100.00;97775.78;5085750;28;20045;-93
2023/01/16 01:40:39;;;;;;;11.43;6.57;;;;;;;9.05;100.00;97775.56;5085349;28;20051;-93
2023/01/16 01:43:12;;;;;;;14.07;7.80;;;;;;;8.93;100.00;97738.03;5085411;28;20044;-94
2023/01/16 01:45:53;;;;;;;14.90;7.13;;;;;;;8.91;100.00;97724.81;5085089;28;20510;-96
2023/01/16 01:48:26;;;;;;;12.60;6.97;;;;;;;9.13;100.00;97767.34;5088514;28;20444;-93
2023/01/16 01:50:57;;;;;;;12.00;7.35;;;;;;;8.97;100.00;97739.66;5084537;28;20041;-94
2023/01/16 01:53:29;;;;;;;13.50;7.75;;;;;;;8.91;100.00;97735.41;5081971;28;20048;-94
2023/01/16 01:55:59;;;;;;;15.80;7.60;;;;;;;8.89;100.00;97736.41;5082094;28;20052;-94
2023/01/16 01:58:27;;;;;;;12.10;7.53;;;;;;;8.83;100.00;97726.91;5082212;28;20055;-94
2023/01/16 02:00:56;;;;;;;17.17;7.90;;;;;;;8.83;100.00;97724.25;5080954;28;20048;-94
2023/01/16 02:03:27;;;;;;;13.00;7.97;;;;;;;8.79;100.00;97720.00;5081446;28;20045;-94
2023/01/16 02:05:57;;;;;;;15.98;8.68;;;;;;;8.80;100.00;97724.34;5083452;28;20044;-94
2023/01/16 02:08:28;;;;;;;13.73;7.10;;;;;;;8.82;100.00;97718.06;5083430;28;20044;-94
2023/01/16 02:10:59;;;;;;;13.48;7.93;;;;;;;8.96;100.00;97735.28;5083308;28;20040;-94
2023/01/16 02:13:25;;;;;;;11.88;8.35;;;;;;;8.91;100.00;97730.13;5081602;28;20041;-94
2023/01/16 02:22:33;;;;;;;15.57;8.30;;;;;;;8.79;100.00;97698.78;5206508;27;20134;-95
2023/01/16 02:25:40;;;;;;;14.05;8.35;;;;;;;8.86;100.00;97696.75;5134597;27;20046;-96
2023/01/16 02:28:35;;;;;;;14.15;8.13;;;;;;;8.83;100.00;97695.94;5153569;27;20053;-96
2023/01/16 02:31:15;;;;;;;14.75;8.32;;;;;;;8.86;100.00;97688.81;5187428;27;20061;-96
2023/01/16 02:33:54;;;;;;;16.05;8.82;;;;;;;9.03;100.00;97707.59;5186012;27;20138;-95
2023/01/16 02:36:31;;;;;;;14.48;8.70;;;;;;;8.89;100.00;97680.72;5186992;27;20034;-95
2023/01/16 02:39:10;;;;;;;16.90;9.23;;;;;;;8.91;100.00;97685.03;5187666;27;20046;-96
2023/01/16 02:41:47;;;;;;;14.85;8.88;;;;;;;9.08;100.00;97718.03;5184880;27;20042;-96
2023/01/16 02:44:19;;;;;;;15.45;8.82;;;;;;;9.00;100.00;97703.28;5186571;27;20509;-96
2023/01/16 02:46:55;;;;;;;14.32;8.18;;;;;;;9.12;100.00;97701.94;5187379;27;20042;-96
2023/01/16 02:49:33;;;;;;;17.63;8.52;;;;;;;8.95;100.00;97673.41;5187131;27;20053;-96
2023/01/16 02:52:10;;;;;;;13.80;8.27;;;;;;;8.96;100.00;97674.28;5187344;27;20077;-95
2023/01/16 02:54:45;;;;;;;15.00;8.35;;;;;;;9.05;100.00;97673.94;5186254;27;20038;-96
2023/01/16 02:57:16;;;;;;;13.27;8.02;;;;;;;8.99;100.00;97655.59;5184966;27;20046;-96
2023/01/16 02:59:42;;;;;;;14.38;7.68;;;;;;;9.18;100.00;97680.47;5186010;27;20083;-95
2023/01/16 03:02:11;;;;;;;12.75;7.47;;;;;;;9.14;100.00;97665.63;5183573;27;20100;-95
2023/01/16 03:04:49;;;;;;;12.60;6.90;;;;;;;9.05;100.00;97636.81;5183141;27;20546;-96
2023/01/16 03:07:47;;;;;;;11.43;6.88;;;;;;;9.05;100.00;97627.06;5182265;27;20046;-95
2023/01/16 03:10:30;;;;;;;20.17;7.57;;;;;;;9.02;100.00;97621.00;5181282;27;20046;-96
2023/01/16 03:13:10;;;;;;;15.35;7.63;;;;;;;9.17;100.00;97651.34;5181020;27;20041;-95
2023/01/16 03:15:50;;;;;;;17.02;8.07;;;;;;;9.09;100.00;97630.47;5180168;27;20033;-96
2023/01/16 03:18:27;;;;;;;12.15;6.93;;;;;;;9.13;100.00;97640.03;5179935;27;20137;-94
2023/01/16 03:21:00;;;;;;;12.75;7.05;;;;;;;9.04;100.00;97617.38;5179269;27;20050;-96
2023/01/16 03:23:35;;;;;;;12.77;6.80;;;;;;;9.10;100.00;97629.53;5178129;27;20090;-96
2023/01/16 03:26:05;;;;;;;16.20;7.32;;;;;;;9.23;100.00;97638.72;5180013;27;20482;-95
2023/01/16 03:28:55;;;;;;;14.57;6.63;;;;;;;9.19;100.00;97621.19;5178997;27;20049;-95
2023/01/16 03:31:33;;;;;;;12.05;6.68;;;;;;;9.09;100.00;97603.09;5174646;27;20168;-96
2023/01/16 03:34:12;;;;;;;15.90;7.50;;;;;;;9.12;100.00;97606.47;5166825;27;20042;-96
2023/01/16 03:36:46;;;;;;;16.55;7.20;;;;;;;9.06;100.00;97601.41;5164636;27;20057;-94
2023/01/16 03:39:14;;;;;;;15.88;7.00;;;;;;;9.07;100.00;97602.28;5166871;27;20070;-95
2023/01/16 03:41:43;;;;;;;13.97;7.30;;;;;;;9.03;100.00;97602.38;5167386;27;20038;-96
2023/01/16 03:44:14;;;;;;;14.98;7.18;;;;;;;9.06;100.00;97601.41;5166284;27;20048;-96
2023/01/16 03:46:47;;;;;;;16.40;7.10;;;;;;;9.05;100.00;97589.94;5165227;27;20047;-96
2023/01/16 03:49:19;;;;;;;13.40;6.85;;;;;;;9.11;100.00;97582.63;5167382;27;20039;-96
2023/01/16 03:51:51;;;;;;;15.02;6.85;;;;;;;9.09;100.00;97572.13;5168925;27;20048;-96
2023/01/16 03:54:28;;;;;;;14.20;6.53;;;;;;;9.08;100.00;97573.03;5166627;27;20072;-96
2023/01/16 03:57:04;;;;;;;14.82;7.15;;;;;;;9.07;100.00;97570.47;5166002;27;20502;-95
2023/01/16 03:59:30;;;;;;;14.02;7.60;;;;;;;9.08;100.00;97567.72;5165489;27;20063;-96
2023/01/16 04:01:59;;;;;;;16.48;7.45;;;;;;;9.12;100.00;97571.97;5163727;27;20463;-95
2023/01/16 04:04:33;;;;;;;15.27;7.28;;;;;;;9.15;100.00;97566.56;5163420;27;20043;-95
2023/01/16 04:07:06;;;;;;;16.67;7.40;;;;;;;9.11;100.00;97564.97;5164373;27;20042;-96
2023/01/16 04:09:38;;;;;;;13.10;6.55;;;;;;;9.14;100.00;97571.94;5165194;27;20042;-96
2023/01/16 04:12:06;;;;;;;14.90;7.03;;;;;;;9.16;100.00;97589.50;5164266;27;20094;-95
2023/01/16 04:14:34;;;;;;;17.65;7.55;;;;;;;9.18;100.00;97587.66;5164100;27;20038;-95
2023/01/16 04:17:01;;;;;;;15.27;8.00;;;;;;;9.16;100.00;97586.00;5164067;27;20049;-96
2023/01/16 04:19:32;;;;;;;10.15;6.40;;;;;;;9.15;100.00;97584.25;5164650;27;20069;-95
2023/01/16 04:21:58;;;;;;;16.25;6.95;;;;;;;9.18;100.00;97584.16;5166590;27;20042;-95
2023/01/16 04:24:24;;;;;;;21.05;7.00;;;;;;;9.19;100.00;97581.41;5165904;27;20122;-95
2023/01/16 04:26:53;;;;;;;12.75;6.85;;;;;;;9.29;100.00;97602.28;5168758;27;20046;-96
2023/01/16 04:29:22;;;;;;;11.07;4.70;;;;;;;9.35;100.00;97625.91;5168568;27;20094;-94
2023/01/16 04:31:48;;;;;;;3.08;2.00;;;;;;;8.97;100.00;97612.38;5169606;27;20034;-95
2023/01/16 04:34:15;;;;;;;2.70;1.63;;;;;;;9.00;100.00;97618.44;5153638;27;20080;-96
2023/01/16 04:36:42;;;;;;;4.50;1.70;;;;;;;8.62;100.00;97611.94;5148870;27;20055;-95
2023/01/16 04:39:08;;;;;;;7.50;2.00;;;;;;;8.17;100.00;97588.84;5161064;27;20046;-96
2023/01/16 04:41:35;;;;;;;5.75;1.80;;;;;;;7.94;100.00;97587.03;5165929;27;20128;-95
2023/01/16 04:44:01;;;;;;;5.57;2.00;;;;;;;7.66;100.00;97574.78;5165232;27;20114;-92
2023/01/16 04:46:27;;;;;;;7.60;1.95;;;;;;;7.46;100.00;97570.16;5156858;27;20065;-95
2023/01/16 04:48:54;;;;;;;8.63;2.03;;;;;;;7.39;100.00;97556.28;5160057;27;20038;-94
2023/01/16 04:51:19;;;;;;;5.28;1.73;;;;;;;7.37;100.00;97538.72;5161394;27;20045;-93
2023/01/16 04:53:47;;;;;;;5.72;1.88;;;;;;;7.48;100.00;97547.19;5147351;27;20043;-93
2023/01/16 04:56:18;;;;;;;8.70;2.50;;;;;;;7.36;100.00;97537.88;5150071;27;20043;-96
2023/01/16 04:58:44;;;;;;;7.07;2.30;;;;;;;7.59;100.00;97557.38;5144411;27;20038;-94
2023/01/16 05:01:10;;;;;;;8.90;2.45;;;;;;;7.50;100.00;97544.47;5145634;27;20064;-96
2023/01/16 05:03:36;;;;;;;11.00;2.55;;;;;;;7.50;100.00;97555.88;5145366;27;20415;-94
2023/01/16 05:06:02;;;;;;;10.07;2.13;;;;;;;7.46;100.00;97553.41;5157395;27;20034;-95
2023/01/16 05:08:28;;;;;;;6.22;2.42;;;;;;;7.52;100.00;97551.41;5158322;27;20050;-95
2023/01/16 05:10:59;;;;;;;10.10;3.45;;;;;;;7.51;100.00;97528.53;5161934;27;20046;-92
2023/01/16 05:13:25;;;;;;;10.20;2.45;;;;;;;7.47;100.00;97534.84;5159095;27;20038;-93
2023/01/16 05:15:50;;;;;;;7.97;2.20;;;;;;;7.59;100.00;97555.59;5158275;27;20041;-94
2023/01/16 05:18:16;;;;;;;8.57;2.22;;;;;;;7.54;100.00;97523.13;5159539;27;20073;-94
2023/01/16 05:20:43;;;;;;;8.70;2.15;;;;;;;7.63;100.00;97563.41;5152746;27;20043;-94
2023/01/16 05:23:10;;;;;;;10.18;2.90;;;;;;;7.54;100.00;97546.94;5139489;27;20035;-95
2023/01/16 05:25:36;;;;;;;10.32;2.85;;;;;;;7.68;100.00;97558.84;5141488;27;20050;-93
2023/01/16 05:28:05;;;;;;;7.40;2.42;;;;;;;7.58;100.00;97563.56;5140563;27;20110;-93
2023/01/16 05:30:31;;;;;;;13.55;3.42;;;;;;;7.49;100.00;97546.25;5140352;27;20042;-93
2023/01/16 05:32:57;;;;;;;12.77;3.72;;;;;;;7.56;100.00;97534.53;5141624;27;20039;-95
2023/01/16 05:35:24;;;;;;;10.00;2.97;;;;;;;7.48;100.00;97536.59;5141376;27;20620;-93
2023/01/16 05:37:50;;;;;;;8.77;2.65;;;;;;;7.42;100.00;97539.44;5140847;27;20051;-92
2023/01/16 05:40:16;;;;;;;7.35;3.08;;;;;;;7.45;100.00;97535.81;5140958;27;20039;-93
2023/01/16 05:42:43;;;;;;;6.10;2.08;;;;;;;7.53;100.00;97541.72;5140271;27;20047;-94
2023/01/16 05:45:11;;;;;;;8.70;2.38;;;;;;;7.59;100.00;97560.03;5139670;27;20085;-94
2023/01/16 05:47:37;;;;;;;4.95;2.72;;;;;;;7.39;100.00;97545.72;5139457;27;20043;-92
2023/01/16 05:50:04;;;;;;;10.48;2.90;;;;;;;7.34;100.00;97537.03;5139473;27;20043;-95
2023/01/16 05:52:29;;;;;;;11.45;3.25;;;;;;;7.39;100.00;97547.47;5136550;27;20039;-95
2023/01/16 05:54:55;;;;;;;7.50;2.67;;;;;;;7.45;100.00;97549.06;5135321;27;20043;-94
2023/01/16 05:57:22;;;;;;;10.07;2.88;;;;;;;7.49;100.00;97553.31;5135132;27;20039;-95
2023/01/16 05:59:48;;;;;;;8.38;2.63;;;;;;;7.44;100.00;97520.84;5135125;27;20062;-94
2023/01/16 06:02:15;;;;;;;6.88;2.63;;;;;;;7.34;100.00;97512.38;5136017;27;20396;-95
2023/01/16 06:04:41;;;;;;;6.72;2.83;;;;;;;7.40;100.00;97518.34;5135056;27;20444;-94
2023/01/16 06:07:07;;;;;;;8.13;2.78;;;;;;;7.42;100.00;97526.22;5134571;27;20069;-95
2023/01/16 06:09:33;;;;;;;9.13;2.70;;;;;;;7.37;100.00;97528.13;5135011;27;20048;-93
2023/01/16 06:11:59;;;;;;;12.32;2.80;;;;;;;7.39;100.00;97529.84;5135494;27;20092;-95
2023/01/16 06:14:25;;;;;;;8.40;2.70;;;;;;;7.43;100.00;97533.22;5134744;27;20108;-94
2023/01/16 06:16:50;;;;;;;7.28;2.78;;;;;;;7.40;100.00;97528.06;5135146;27;20544;-94
2023/01/16 06:19:18;;;;;;;10.60;2.80;;;;;;;7.51;100.00;97551.50;5134931;28;20043;-95
2023/01/16 06:21:43;;;;;;;7.97;2.80;;;;;;;7.45;100.00;97536.69;5134712;27;20078;-94
2023/01/16 06:24:10;;;;;;;8.52;3.15;;;;;;;7.45;100.00;97523.47;5134371;28;20043;-94
2023/01/16 06:26:35;;;;;;;6.65;3.17;;;;;;;7.53;100.00;97536.44;5135043;28;20051;-94
2023/01/16 06:29:01;;;;;;;7.30;3.13;;;;;;;7.51;100.00;97543.56;5134508;28;20182;-93
2023/01/16 06:31:28;;;;;;;10.77;2.88;;;;;;;7.50;100.00;97550.59;5134861;28;20034;-93
2023/01/16 06:33:54;;;;;;;8.30;2.85;;;;;;;7.38;100.00;97537.81;5134848;28;20043;-94
2023/01/16 06:36:21;;;;;;;10.18;3.28;;;;;;;7.43;100.00;97549.09;5134645;28;20040;-95
2023/01/16 06:38:47;;;;;;;17.00;3.65;;;;;;;7.44;100.00;97550.84;5135407;28;20496;-95
2023/01/16 06:41:13;;;;;;;7.85;3.55;;;;;;;7.52;100.00;97567.28;5135206;28;20035;-94
2023/01/16 06:43:39;;;;;;;9.07;3.50;;;;;;;7.42;100.00;97550.03;5135431;28;20089;-95
2023/01/16 06:46:05;;;;;;;8.55;3.22;;;;;;;7.42;100.00;97542.09;5135183;28;20039;-94
2023/01/16 06:48:31;;;;;;;10.93;2.95;;;;;;;7.45;100.00;97551.69;5136033;28;20492;-95
2023/01/16 06:50:59;;;;;;;9.23;3.53;;;;;;;7.47;100.00;97552.50;5136254;28;20035;-95
2023/01/16 06:53:26;;;;;;;9.73;3.75;;;;;;;7.42;100.00;97547.38;5136944;28;20066;-96
2023/01/16 06:55:52;;;;;;;9.38;3.70;;;;;;;7.46;100.00;97556.94;5137245;28;20047;-95
2023/01/16 06:58:18;;;;;;;11.18;4.53;;;;;;;7.29;100.00;97536.34;5136942;28;20138;-95
2023/01/16 07:00:44;;;;;;;8.18;3.65;;;;;;;7.37;100.00;97551.94;5136306;28;20067;-96
2023/01/16 07:03:12;;;;;;;11.57;3.50;;;;;;;7.15;100.00;97538.56;5136500;28;20441;-94
2023/01/16 07:05:38;;;;;;;8.20;3.45;;;;;;;7.08;100.00;97527.34;5137926;27;20043;-94
2023/01/16 07:08:04;;;;;;;9.57;3.50;;;;;;;7.11;100.00;97537.84;5139275;27;20047;-95
2023/01/16 07:10:31;;;;;;;10.32;3.78;;;;;;;6.97;100.00;97534.78;5141335;27;20039;-94
2023/01/16 07:12:57;;;;;;;7.32;2.80;;;;;;;7.01;100.00;97560.19;5141137;27;20045;-95
2023/01/16 07:24:40;;;;;;;9.45;3.20;;;;;;;6.30;100.00;97538.59;5076077;27;20376;-93
2023/01/16 07:27:08;;;;;;;6.43;2.85;;;;;;;6.17;100.00;97530.16;5075069;28;20095;-95
2023/01/16 07:29:35;;;;;;;22.42;4.25;;;;;;;6.25;100.00;97545.78;5075088;28;20109;-94
2023/01/16 07:32:03;;;;;;;5.43;3.03;;;;;;;6.09;100.00;97529.50;5074910;28;20051;-94
2023/01/16 07:34:29;;;;;;;6.25;3.00;;;;;;;6.23;100.00;97546.75;5075272;28;20044;-95
2023/01/16 07:36:55;;;;;;;5.13;2.90;;;;;;;6.24;100.00;97551.97;5074414;28;20076;-93
2023/01/16 07:39:21;;;;;;;7.50;3.42;;;;;;;6.19;100.00;97545.09;5074612;28;20048;-94
2023/01/16 07:41:50;;;;;;;12.18;4.25;;;;;;;6.10;100.00;97527.75;5075527;28;20040;-93
2023/01/16 07:44:16;;;;;;;10.32;3.50;;;;;;;6.17;100.00;97530.16;5075605;28;20112;-94
2023/01/16 07:46:42;;;;;;;8.05;3.60;;;;;;;6.36;100.00;97548.97;5075494;28;20040;-94
2023/01/16 07:49:08;;;;;;;8.18;3.33;;;;;;;6.31;100.00;97560.56;5074692;28;20044;-95
2023/01/16 07:51:34;;;;;;;9.02;3.38;;;;;;;6.21;100.00;97549.44;5071961;28;20052;-94
2023/01/16 07:53:59;;;;;;;9.00;3.67;;;;;;;6.29;100.00;97567.66;5071869;28;20098;-94
2023/01/16 07:56:25;;;;;;;9.57;3.35;;;;;;;6.21;100.00;97559.13;5072143;28;20045;-94
2023/01/16 07:58:54;;;;;;;20.58;10.00;;;;;;;6.16;100.00;97546.91;5072223;28;20132;-94
2023/01/16 08:01:20;;;;;;;16.25;10.52;;;;;;;6.33;100.00;97556.09;5072205;28;20045;-95
2023/01/16 08:03:45;;;;;;;23.45;11.93;;;;;;;6.31;100.00;97550.00;5071672;28;20086;-94
2023/01/16 08:06:11;;;;;;;13.73;7.13;;;;;;;6.48;100.00;97565.34;5072005;28;20128;-94
2023/01/16 08:08:37;;;;;;;13.07;6.60;;;;;;;6.57;100.00;97530.72;5071098;28;20049;-94
2023/01/16 08:14:06;;;;;;;12.13;5.85;;;;;;;6.65;100.00;97523.44;5110422;27;20371;-94
2023/01/16 08:16:32;;;;;;;11.35;5.75;;;;;;;6.55;100.00;97514.09;5093139;28;20494;-94
2023/01/16 08:18:58;;;;;;;16.17;7.15;;;;;;;6.62;100.00;97531.47;5093720;28;20052;-94
2023/01/16 08:21:24;;;;;;;22.95;11.80;;;;;;;6.60;100.00;97533.28;5093250;28;20040;-95
2023/01/16 08:23:50;;;;;;;23.30;13.98;;;;;;;6.48;100.00;97526.59;5093266;28;20052;-94
2023/01/16 08:26:16;;;;;;;16.38;8.13;;;;;;;6.44;100.00;97532.03;5093581;28;20044;-95
2023/01/16 08:28:42;;;;;;;15.20;7.60;;;;;;;6.43;100.00;97527.66;5094591;28;20078;-95
2023/01/16 08:31:13;;;;;;;15.13;6.95;;;;;;;6.50;100.00;97537.97;5095140;28;20052;-96
2023/01/16 08:33:40;;;;;;;12.88;6.43;;;;;;;6.65;100.00;97531.38;5094370;28;20044;-94
2023/01/16 08:36:08;;;;;;;12.18;6.20;;;;;;;6.99;100.00;97522.38;5093575;28;20142;-94
2023/01/16 08:38:35;;;;;;;16.87;6.47;;;;;;;7.15;100.00;97523.56;5093457;28;20045;-94
2023/01/16 08:41:01;;;;;;;12.30;6.63;;;;;;;7.46;100.00;97546.38;5093766;28;20413;-95
2023/01/16 08:52:30;;;;;;;14.30;5.75;;;;;;;7.45;100.00;97522.59;5150050;27;1410209;-95
2023/01/16 08:54:57;;;;;;;9.95;5.80;;;;;;;7.42;100.00;97515.66;5159417;27;20142;-94
2023/01/16 08:57:23;;;;;;;13.73;5.90;;;;;;;7.62;100.00;97544.03;5159295;27;20038;-95
2023/01/16 08:59:49;;;;;;;11.70;5.80;;;;;;;7.52;100.00;97518.81;5159517;27;20425;-95
2023/01/16 09:02:15;;;;;;;14.73;6.05;;;;;;;7.61;100.00;97524.66;5159228;27;20057;-94
2023/01/16 09:04:41;;;;;;;13.35;6.25;;;;;;;7.66;100.00;97513.06;5158488;27;20065;-94
2023/01/16 09:07:07;;;;;;;11.48;4.95;;;;;;;7.95;100.00;97519.94;5159961;27;20038;-95
2023/01/16 09:09:34;;;;;;;11.35;5.47;;;;;;;8.13;100.00;97529.88;5160103;27;20047;-96
2023/01/16 09:15:09;;;;;;;13.18;4.57;;;;;;;8.45;100.00;97534.88;5177846;27;20376;-94
2023/01/16 09:17:35;;;;;;;11.38;5.72;;;;;;;8.42;100.00;97514.69;5159971;27;20075;-96
2023/01/16 09:20:02;;;;;;;13.38;5.72;;;;;;;8.42;100.00;97504.94;5162556;27;20042;-94
2023/01/16 09:22:28;;;;;;;10.88;5.43;;;;;;;8.41;100.00;97511.19;5160312;27;20074;-94
2023/01/16 09:24:54;;;;;;;15.05;6.03;;;;;;;8.48;100.00;97508.25;5159109;27;20117;-96
2023/01/16 09:27:20;;;;;;;15.20;6.50;;;;;;;8.68;100.00;97503.06;5161374;27;20063;-95
2023/01/16 09:29:46;;;;;;;16.60;6.78;;;;;;;8.90;100.00;97500.41;5160338;27;20550;-95
2023/01/16 09:32:14;;;;;;;19.10;7.55;;;;;;;9.10;100.00;97490.75;5159313;27;20066;-96
2023/01/16 09:34:41;;;;;;;10.15;5.50;;;;;;;9.19;100.00;97487.72;5159171;27;20074;-95
2023/01/16 09:37:07;;;;;;;14.35;5.90;;;;;;;9.51;100.00;97501.41;5158783;27;20137;-95
2023/01/16 09:39:33;;;;;;;15.25;5.80;;;;;;;9.78;100.00;97494.03;5160000;27;20050;-95
2023/01/16 09:45:50;;;;;;;13.65;5.63;;;;;;;10.43;98.57;97510.56;5115874;27;20369;-95
2023/01/16 09:48:25;;;;;;;15.15;5.60;;;;;;;10.48;97.09;97480.22;5097263;28;20147;-94
2023/01/16 09:50:55;;;;;;;15.25;5.30;;;;;;;10.72;94.65;97490.59;5097362;28;20047;-96
2023/01/16 09:59:43;;;;;;;17.00;4.13;;;;;;;10.74;83.94;97487.88;5108094;27;20119;-96
2023/01/16 10:02:19;;;;;;;17.85;3.92;;;;;;;10.60;80.30;97446.84;5073611;28;20048;-96
2023/01/16 10:04:46;;;;;;;14.65;3.55;;;;;;;10.68;76.42;97468.63;5075608;28;20048;-94
2023/01/16 10:07:28;;;;;;;10.63;3.60;;;;;;;10.96;78.12;97467.28;5073606;28;20048;-95
2023/01/16 10:10:02;;;;;;;10.65;2.92;;;;;;;11.10;76.12;97459.47;5074492;28;20494;-94
2023/01/16 10:12:34;;;;;;;12.10;3.80;;;;;;;10.87;69.13;97454.44;5075623;28;20041;-94
2023/01/16 10:15:14;;;;;;;19.13;5.40;;;;;;;11.00;73.77;97442.25;5074609;28;20140;-94
2023/01/16 10:17:55;;;;;;;19.30;5.95;;;;;;;10.86;73.97;97434.97;5075648;28;20052;-94
2023/01/16 10:20:36;;;;;;;13.48;4.85;;;;;;;10.69;70.89;97435.78;5075434;28;20048;-94
2023/01/16 10:23:17;;;;;;;8.50;2.70;;;;;;;10.48;70.20;97435.03;5072979;28;20048;-95
2023/01/16 10:25:48;;;;;;;9.32;2.90;;;;;;;10.50;66.93;97444.75;5073814;28;20055;-95
2023/01/16 10:28:30;;;;;;;11.23;2.55;;;;;;;10.28;65.85;97467.84;5077791;28;20155;-95
2023/01/16 10:31:05;;;;;;;9.25;2.70;;;;;;;10.09;65.23;97440.41;5076277;28;20040;-94
2023/01/16 10:33:34;;;;;;;8.05;2.30;;;;;;;10.32;66.63;97463.25;5075268;28;20033;-95
2023/01/16 10:36:02;;;;;;;;;;;;;;;10.16;65.33;97452.47;5076287;28;20037;-96
2023/01/16 10:38:44;;;;;;;4.18;2.10;;;;;;;9.92;66.52;97417.28;5073268;28;19928;-95
2023/01/16 10:49:25;;;;;;;13.85;3.22;;;;;;;10.04;67.12;97419.38;5074686;28;20095;-95
2023/01/16 10:50:18;;;;;;;12.35;3.33;;;;;;;10.10;65.65;97391.63;5075937;27;20387;-94
2023/01/16 10:52:45;;;;;;;;;;;;;;;10.61;71.72;97410.53;5073594;28;20045;-96
2023/01/16 10:55:12;;;;;;;7.45;2.95;;;;;;;10.51;65.44;97361.41;5075733;28;20004;-96
2023/01/16 10:57:44;;;;;;;9.70;2.53;;;;;;;10.65;66.88;97359.78;5075635;28;20482;-95
2023/01/16 11:00:16;;;;;;;8.85;2.50;;;;;;;10.67;66.58;97367.69;5074691;28;20053;-95
2023/01/16 11:02:44;;;;;;;6.95;2.40;;;;;;;10.52;63.33;97364.00;5075346;28;20071;-95
2023/01/16 11:05:26;;;;;;;13.00;3.50;;;;;;;10.64;68.60;97381.97;5072900;28;20230;-95
2023/01/16 11:07:53;;;;;;;11.82;3.40;;;;;;;10.56;68.00;97359.34;5072863;28;20029;-95
2023/01/16 11:10:21;;;;;;;8.27;2.85;;;;;;;10.61;66.91;97373.31;5075042;28;20425;-94
2023/01/16 11:19:20;;;;;;;8.55;2.70;;;;;;;10.31;63.30;97331.34;5100543;27;20720;-96
2023/01/16 11:21:51;;;;;;;8.02;2.60;;;;;;;10.38;66.74;97326.59;5081257;28;20070;-95
2023/01/16 11:24:21;;;;;;;8.98;3.13;;;;;;;10.55;64.20;97328.41;5081874;28;20135;-96
2023/01/16 11:26:51;;;;;;;8.27;3.05;;;;;;;10.63;62.66;97331.56;5116370;28;20119;-95
2023/01/16 11:29:18;;;;;;;11.13;2.58;;;;;;;10.69;64.40;97313.50;5080555;28;20137;-95
2023/01/16 11:31:48;;;;;;;11.18;2.97;;;;;;;10.95;63.78;97323.72;5078144;28;20075;-95
2023/01/16 11:34:15;;;;;;;12.75;3.28;;;;;;;10.96;63.39;97318.31;5079825;28;20044;-96
2023/01/16 11:36:43;;;;;;;10.63;3.40;;;;;;;11.04;65.95;97300.16;5079732;28;20044;-96
2023/01/16 11:39:20;;;;;;;12.45;4.45;;;;;;;11.09;64.57;97287.47;5079473;28;20051;-94
2023/01/16 11:41:50;;;;;;;9.32;3.92;;;;;;;11.14;66.05;97281.91;5080826;28;20040;-95
2023/01/16 11:47:26;;;;;;;12.48;4.15;;;;;;;11.37;62.60;97250.56;5078431;28;20408;-96
2023/01/16 11:49:53;;;;;;;9.27;3.47;;;;;;;11.79;63.30;97246.44;5058998;28;20417;-96
2023/01/16 11:52:28;;;;;;;9.40;2.95;;;;;;;11.89;59.92;97231.72;5055792;28;20040;-96
2023/01/16 11:54:55;;;;;;;10.32;3.55;;;;;;;11.95;62.76;97226.03;5057260;28;20045;-95
2023/01/16 11:57:43;;;;;;;13.25;4.85;;;;;;;11.98;67.26;97252.47;5056676;28;20145;-94
2023/01/16 12:00:26;;;;;;;10.67;3.30;;;;;;;12.15;65.81;97238.19;5058593;28;20055;-95
2023/01/16 12:03:18;;;;;;;9.38;3.72;;;;;;;12.19;63.15;97221.09;5073267;28;20072;-95
2023/01/16 12:05:57;;;;;;;11.15;4.03;;;;;;;12.00;62.90;97220.44;5073742;28;20044;-94
2023/01/16 12:08:30;;;;;;;;;;;;;;;12.10;61.96;97233.13;5074788;28;20497;-95
2023/01/16 12:11:04;;;;;;;8.32;2.88;;;;;;;11.71;61.06;97197.16;5060517;28;19950;-94
2023/01/16 12:16:52;;;;;;;11.15;3.05;;;;;;;11.68;59.10;97228.41;5092781;27;20364;-94
2023/01/16 12:19:46;;;;;;;9.25;2.90;;;;;;;11.53;59.18;97198.19;5074721;28;20103;-95
2023/01/16 12:22:22;;;;;;;12.68;3.47;;;;;;;11.36;62.05;97185.81;5075795;28;20080;-93
2023/01/16 12:24:58;;;;;;;11.27;3.45;;;;;;;11.23;61.05;97158.16;5074643;28;20135;-94
2023/01/16 12:27:38;;;;;;;8.48;2.70;;;;;;;11.19;60.34;97173.47;5064440;28;20048;-94
2023/01/16 12:30:18;;;;;;;8.73;3.00;;;;;;;11.16;61.78;97164.78;5059958;28;20048;-94
2023/01/16 12:32:59;;;;;;;14.13;5.20;;;;;;;11.07;61.50;97160.81;5074821;28;20037;-93
2023/01/16 12:35:35;;;;;;;10.65;4.80;;;;;;;11.00;62.61;97140.81;5072931;28;20036;-94
2023/01/16 12:38:14;;;;;;;8.82;3.97;;;;;;;10.86;63.14;97136.25;5074793;28;20037;-94
2023/01/16 12:43:17;;;;;;;10.70;3.63;;;;;;;10.87;60.93;97148.63;5076500;28;20052;-93
2023/01/16 12:43:55;;;;;;;7.10;2.75;;;;;;;10.80;60.34;97142.78;5040650;28;20087;-95